Nearby METAR Reports

 

KPBH - Phillips, Wisconsin, USA
Distance from station: SE 13mi, 21km
Updated: 08/07/2020 1:15pm
Overcast
Overcast
 Wind from S
Wind: S 8 mph , 13 km/h
Temperature: 73°F , 23°C
Dew Point: 61°F , 16°C
Humidity: 65%
Barometer: 30.09 inHg , 1019 hPa
Clouds: Overcast
Visibility: 10 miles , 16 km
Cloud details: Mostly cloudy 3400 ft
Mostly cloudy 6500 ft
Overcast 7500 ft
2020/08/07 18:15 KPBH 071815Z AUTO 19007KT 10SM BKN034 BKN065 OVC075 23/16 A3009 RMK AO2 T02250164
KRCX - Ladysmith/Rusk, Wisconsin, USA
Distance from station: SW 29mi, 46km
Updated: 08/07/2020 1:15pm
Partly cloudy
Partly cloudy
 Wind from SSE
Wind: SSE 12 mph , 19 km/h, Gust: 18 mph , 30 km/h
Temperature: 75°F , 24°C
Dew Point: 64°F , 18°C
Humidity: 69%
Barometer: 30.09 inHg , 1019 hPa
Clouds: Partly cloudy
Visibility: 10 miles , 16 km
Cloud details: Partly cloudy 7500 ft
Partly cloudy 8500 ft
2020/08/07 18:15 KRCX 071815Z AUTO 16010G16KT 10SM SCT075 SCT085 24/18 A3009 RMK AO2 T02370184
 
KD25 - Manitowish Water, Wisconsin, USA
Distance from station: ENE 41mi, 66km
Updated: 08/07/2020 1:15pm
Mostly cloudy
Mostly cloudy
 Wind from S
Wind: S 14 mph , 22 km/h, Gust: 21 mph , 33 km/h
Temperature: 77°F , 25°C
Dew Point: 61°F , 16°C
Humidity: 57%
Barometer: 30.09 inHg , 1019 hPa
Clouds: Mostly cloudy
Visibility: 10 miles , 16 km
Cloud details: Partly cloudy 3500 ft
Mostly cloudy 9000 ft
2020/08/07 18:15 KD25 071815Z AUTO 19012G18KT 10SM SCT035 BKN090 25/16 A3009 RMK AO2 T02470163
KHYR - Hayward, Wisconsin, USA
Distance from station: WNW 42mi, 68km
Updated: 08/07/2020 12:53pm
Mostly cloudy
Mostly cloudy
 Wind from S
Wind: S 9 mph , 15 km/h, Gust: 21 mph , 33 km/h
Temperature: 73°F , 23°C
Dew Point: 64°F , 18°C
Humidity: 74%
Barometer: 30.04 inHg , 1017.3 hPa
Clouds: Mostly cloudy
Visibility: 10 miles , 16 km
Cloud details: Mostly cloudy 2100 ft
2020/08/07 17:53 KHYR 071753Z AUTO 17008G18KT 10SM BKN021 23/18 A3004 RMK AO2 SLP170 T02330178 10239 20167 58005
 
KARV - Minocqua/Woodruf, Wisconsin, USA
Distance from station: E 44mi, 71km
Updated: 08/07/2020 1:15pm
Overcast
Overcast
 Wind from S
Wind: S 10 mph , 17 km/h
Temperature: 77°F , 25°C
Dew Point: 63°F , 17°C
Humidity: 61%
Barometer: 30.10 inHg , 1019.3 hPa
Clouds: Overcast
Visibility: 10 miles , 16 km
Cloud details: Partly cloudy 3700 ft
Overcast 9500 ft
2020/08/07 18:15 KARV 071815Z AUTO 19009KT 10SM SCT037 OVC095 25/17 A3010 RMK AO2 T02500174
KTKV - Tomahawk Regnl, Wisconsin, USA
Distance from station: ESE 46mi, 74km
Updated: 08/07/2020 1:15pm
Partly cloudy
Partly cloudy
 Wind from S
Wind: S 5 mph , 7 km/h
Temperature: 77°F , 25°C
Dew Point: 61°F , 16°C
Humidity: 57%
Barometer: 30.11 inHg , 1019.6 hPa
Clouds: Partly cloudy
Visibility: 10 miles , 16 km
Cloud details: Partly cloudy 4700 ft
Partly cloudy 5500 ft
2020/08/07 18:15 KTKV 071815Z AUTO 19004KT 10SM SCT047 SCT055 25/16 A3011 RMK AO2 T02500159 PWINO